sensor_id;sensor_type;location;lat;lon;timestamp;temperature;humidity
41939;DHT22;23057;48.554;14.454;2022-07-22T00:01:15;17.40;99.90
41939;DHT22;23057;48.554;14.454;2022-07-22T00:03:46;17.40;99.90
41939;DHT22;23057;48.554;14.454;2022-07-22T00:06:17;17.50;99.90
41939;DHT22;23057;48.554;14.454;2022-07-22T00:08:48;17.60;99.90
41939;DHT22;23057;48.554;14.454;2022-07-22T00:11:19;17.50;99.90
41939;DHT22;23057;48.554;14.454;2022-07-22T00:13:50;17.60;99.90
41939;DHT22;23057;48.554;14.454;2022-07-22T00:16:20;17.50;99.90
41939;DHT22;23057;48.554;14.454;2022-07-22T00:18:51;17.50;99.90
41939;DHT22;23057;48.554;14.454;2022-07-22T00:21:22;17.40;99.90
41939;DHT22;23057;48.554;14.454;2022-07-22T00:23:53;17.30;99.90
41939;DHT22;23057;48.554;14.454;2022-07-22T00:26:23;17.20;99.90
41939;DHT22;23057;48.554;14.454;2022-07-22T00:28:54;17.20;99.90
41939;DHT22;23057;48.554;14.454;2022-07-22T00:31:25;17.10;99.90
41939;DHT22;23057;48.554;14.454;2022-07-22T00:33:56;17.30;99.90
41939;DHT22;23057;48.554;14.454;2022-07-22T00:36:27;17.40;99.90
41939;DHT22;23057;48.554;14.454;2022-07-22T00:38:59;17.40;99.90
41939;DHT22;23057;48.554;14.454;2022-07-22T00:41:30;17.20;99.90
41939;DHT22;23057;48.554;14.454;2022-07-22T00:44:02;17.20;99.90
41939;DHT22;23057;48.554;14.454;2022-07-22T00:46:36;17.10;99.90
41939;DHT22;23057;48.554;14.454;2022-07-22T00:49:08;17.10;99.90
41939;DHT22;23057;48.554;14.454;2022-07-22T00:51:40;17.00;99.90
41939;DHT22;23057;48.554;14.454;2022-07-22T00:54:11;16.90;99.90
41939;DHT22;23057;48.554;14.454;2022-07-22T00:56:44;17.00;99.90
41939;DHT22;23057;48.554;14.454;2022-07-22T00:59:16;16.90;99.90
41939;DHT22;23057;48.554;14.454;2022-07-22T01:01:47;16.90;99.90
41939;DHT22;23057;48.554;14.454;2022-07-22T01:04:18;16.90;99.90
41939;DHT22;23057;48.554;14.454;2022-07-22T01:06:49;16.90;99.90
41939;DHT22;23057;48.554;14.454;2022-07-22T01:09:20;17.00;99.90
41939;DHT22;23057;48.554;14.454;2022-07-22T01:11:51;17.00;99.90
41939;DHT22;23057;48.554;14.454;2022-07-22T01:14:21;17.10;99.90
41939;DHT22;23057;48.554;14.454;2022-07-22T01:16:52;17.10;99.90
41939;DHT22;23057;48.554;14.454;2022-07-22T01:19:23;17.10;99.90
41939;DHT22;23057;48.554;14.454;2022-07-22T01:21:54;17.00;99.90
41939;DHT22;23057;48.554;14.454;2022-07-22T01:24:25;17.00;99.90
41939;DHT22;23057;48.554;14.454;2022-07-22T01:26:56;17.00;99.90
41939;DHT22;23057;48.554;14.454;2022-07-22T01:29:27;17.00;99.90
41939;DHT22;23057;48.554;14.454;2022-07-22T01:31:57;16.90;99.90
41939;DHT22;23057;48.554;14.454;2022-07-22T01:34:28;17.00;99.90
41939;DHT22;23057;48.554;14.454;2022-07-22T01:36:59;17.00;99.90
41939;DHT22;23057;48.554;14.454;2022-07-22T01:39:30;17.10;99.90
41939;DHT22;23057;48.554;14.454;2022-07-22T01:42:01;17.10;99.90
41939;DHT22;23057;48.554;14.454;2022-07-22T01:44:31;17.00;99.90
41939;DHT22;23057;48.554;14.454;2022-07-22T01:47:04;17.00;99.90
41939;DHT22;23057;48.554;14.454;2022-07-22T01:49:35;17.10;99.90
41939;DHT22;23057;48.554;14.454;2022-07-22T01:52:06;17.10;99.90
41939;DHT22;23057;48.554;14.454;2022-07-22T01:54:37;17.00;99.90
41939;DHT22;23057;48.554;14.454;2022-07-22T01:57:08;16.90;99.90
41939;DHT22;23057;48.554;14.454;2022-07-22T01:59:39;16.80;99.90
41939;DHT22;23057;48.554;14.454;2022-07-22T02:02:09;16.90;99.90
41939;DHT22;23057;48.554;14.454;2022-07-22T02:04:40;16.90;99.90
41939;DHT22;23057;48.554;14.454;2022-07-22T02:07:11;17.00;99.90
41939;DHT22;23057;48.554;14.454;2022-07-22T02:09:42;16.90;99.90
41939;DHT22;23057;48.554;14.454;2022-07-22T02:12:13;17.00;99.90
41939;DHT22;23057;48.554;14.454;2022-07-22T02:14:44;16.90;99.90
41939;DHT22;23057;48.554;14.454;2022-07-22T02:17:15;17.00;99.90
41939;DHT22;23057;48.554;14.454;2022-07-22T02:19:46;17.00;99.90
41939;DHT22;23057;48.554;14.454;2022-07-22T02:22:17;17.00;99.90
41939;DHT22;23057;48.554;14.454;2022-07-22T02:24:48;17.00;99.90
41939;DHT22;23057;48.554;14.454;2022-07-22T02:27:19;17.10;99.90
41939;DHT22;23057;48.554;14.454;2022-07-22T02:29:50;17.00;99.90
41939;DHT22;23057;48.554;14.454;2022-07-22T02:32:20;16.80;99.90
41939;DHT22;23057;48.554;14.454;2022-07-22T02:34:51;16.80;99.90
41939;DHT22;23057;48.554;14.454;2022-07-22T02:37:22;16.80;99.90
41939;DHT22;23057;48.554;14.454;2022-07-22T02:39:54;16.80;99.90
41939;DHT22;23057;48.554;14.454;2022-07-22T02:42:25;16.70;99.90
41939;DHT22;23057;48.554;14.454;2022-07-22T02:44:56;16.80;99.90
41939;DHT22;23057;48.554;14.454;2022-07-22T02:47:27;16.80;99.90
41939;DHT22;23057;48.554;14.454;2022-07-22T02:49:58;16.90;99.90
41939;DHT22;23057;48.554;14.454;2022-07-22T02:52:29;16.90;99.90
41939;DHT22;23057;48.554;14.454;2022-07-22T02:55:00;16.90;99.90
41939;DHT22;23057;48.554;14.454;2022-07-22T02:57:30;16.90;99.90
41939;DHT22;23057;48.554;14.454;2022-07-22T03:00:02;16.90;99.90
41939;DHT22;23057;48.554;14.454;2022-07-22T03:02:35;16.90;99.90
41939;DHT22;23057;48.554;14.454;2022-07-22T03:05:06;16.90;99.90
41939;DHT22;23057;48.554;14.454;2022-07-22T03:07:38;16.90;99.90
41939;DHT22;23057;48.554;14.454;2022-07-22T03:10:08;16.90;99.90
41939;DHT22;23057;48.554;14.454;2022-07-22T03:12:39;16.90;99.90
41939;DHT22;23057;48.554;14.454;2022-07-22T03:15:10;16.80;99.90
41939;DHT22;23057;48.554;14.454;2022-07-22T03:17:41;16.80;99.90
41939;DHT22;23057;48.554;14.454;2022-07-22T03:20:11;16.80;99.90
41939;DHT22;23057;48.554;14.454;2022-07-22T03:22:42;16.70;99.90
41939;DHT22;23057;48.554;14.454;2022-07-22T03:25:13;16.70;99.90
41939;DHT22;23057;48.554;14.454;2022-07-22T03:27:44;16.60;99.90
41939;DHT22;23057;48.554;14.454;2022-07-22T03:30:15;16.60;99.90
41939;DHT22;23057;48.554;14.454;2022-07-22T03:32:45;16.50;99.90
41939;DHT22;23057;48.554;14.454;2022-07-22T03:35:17;16.50;99.90
41939;DHT22;23057;48.554;14.454;2022-07-22T03:37:47;16.50;99.90
41939;DHT22;23057;48.554;14.454;2022-07-22T03:40:18;16.40;99.90
41939;DHT22;23057;48.554;14.454;2022-07-22T03:42:49;16.30;99.90
41939;DHT22;23057;48.554;14.454;2022-07-22T03:45:20;16.40;99.90
41939;DHT22;23057;48.554;14.454;2022-07-22T03:47:51;16.40;99.90
41939;DHT22;23057;48.554;14.454;2022-07-22T03:50:25;16.40;99.90
41939;DHT22;23057;48.554;14.454;2022-07-22T03:52:56;16.20;99.90
41939;DHT22;23057;48.554;14.454;2022-07-22T03:55:27;16.10;99.90
41939;DHT22;23057;48.554;14.454;2022-07-22T03:57:57;16.00;99.90
41939;DHT22;23057;48.554;14.454;2022-07-22T04:00:28;16.00;99.90
41939;DHT22;23057;48.554;14.454;2022-07-22T04:02:59;16.20;99.90
41939;DHT22;23057;48.554;14.454;2022-07-22T04:05:30;16.30;99.90
41939;DHT22;23057;48.554;14.454;2022-07-22T04:08:01;16.30;99.90
41939;DHT22;23057;48.554;14.454;2022-07-22T04:10:32;16.10;99.90
41939;DHT22;23057;48.554;14.454;2022-07-22T04:13:02;15.90;99.90
41939;DHT22;23057;48.554;14.454;2022-07-22T04:15:34;15.80;99.90
41939;DHT22;23057;48.554;14.454;2022-07-22T04:18:04;15.90;99.90
41939;DHT22;23057;48.554;14.454;2022-07-22T04:20:35;15.90;99.90
41939;DHT22;23057;48.554;14.454;2022-07-22T04:23:06;16.20;99.90
41939;DHT22;23057;48.554;14.454;2022-07-22T04:25:37;16.40;99.90
41939;DHT22;23057;48.554;14.454;2022-07-22T04:28:07;16.80;99.90
41939;DHT22;23057;48.554;14.454;2022-07-22T04:30:38;17.00;99.90
41939;DHT22;23057;48.554;14.454;2022-07-22T04:33:09;17.00;99.90
41939;DHT22;23057;48.554;14.454;2022-07-22T04:35:40;17.10;99.90
41939;DHT22;23057;48.554;14.454;2022-07-22T04:38:11;17.30;99.90
41939;DHT22;23057;48.554;14.454;2022-07-22T04:40:42;17.30;99.90
41939;DHT22;23057;48.554;14.454;2022-07-22T04:43:12;17.60;99.90
41939;DHT22;23057;48.554;14.454;2022-07-22T04:45:43;18.60;99.90
41939;DHT22;23057;48.554;14.454;2022-07-22T04:48:14;19.50;99.90
41939;DHT22;23057;48.554;14.454;2022-07-22T04:50:44;20.40;66.40
41939;DHT22;23057;48.554;14.454;2022-07-22T04:53:15;21.20;1.00
41939;DHT22;23057;48.554;14.454;2022-07-22T04:55:47;22.20;99.90
41939;DHT22;23057;48.554;14.454;2022-07-22T04:58:17;22.40;99.90
41939;DHT22;23057;48.554;14.454;2022-07-22T05:00:48;22.50;99.90
41939;DHT22;23057;48.554;14.454;2022-07-22T05:03:19;22.70;99.90
41939;DHT22;23057;48.554;14.454;2022-07-22T05:05:50;23.20;47.20
41939;DHT22;23057;48.554;14.454;2022-07-22T05:08:21;23.80;8.10
41939;DHT22;23057;48.554;14.454;2022-07-22T05:10:51;25.00;1.00
41939;DHT22;23057;48.554;14.454;2022-07-22T05:13:22;25.60;1.00
41939;DHT22;23057;48.554;14.454;2022-07-22T05:15:53;25.00;1.00
41939;DHT22;23057;48.554;14.454;2022-07-22T05:18:24;25.00;1.00
41939;DHT22;23057;48.554;14.454;2022-07-22T05:20:55;25.40;1.00
41939;DHT22;23057;48.554;14.454;2022-07-22T05:23:25;26.10;1.00
41939;DHT22;23057;48.554;14.454;2022-07-22T05:25:56;27.20;99.90
41939;DHT22;23057;48.554;14.454;2022-07-22T05:28:27;27.50;99.90
41939;DHT22;23057;48.554;14.454;2022-07-22T05:30:58;26.50;99.90
41939;DHT22;23057;48.554;14.454;2022-07-22T05:33:29;27.10;99.90
41939;DHT22;23057;48.554;14.454;2022-07-22T05:36:00;27.80;99.90
41939;DHT22;23057;48.554;14.454;2022-07-22T05:38:31;28.80;99.90
41939;DHT22;23057;48.554;14.454;2022-07-22T05:41:03;29.20;99.90
41939;DHT22;23057;48.554;14.454;2022-07-22T05:43:34;29.20;99.90
41939;DHT22;23057;48.554;14.454;2022-07-22T05:46:05;28.90;99.90
41939;DHT22;23057;48.554;14.454;2022-07-22T05:48:37;29.40;99.90
41939;DHT22;23057;48.554;14.454;2022-07-22T05:51:14;28.60;99.90
41939;DHT22;23057;48.554;14.454;2022-07-22T05:53:45;29.10;99.90
41939;DHT22;23057;48.554;14.454;2022-07-22T05:56:16;28.30;99.90
41939;DHT22;23057;48.554;14.454;2022-07-22T05:58:47;28.80;99.90
41939;DHT22;23057;48.554;14.454;2022-07-22T06:01:17;28.90;99.90
41939;DHT22;23057;48.554;14.454;2022-07-22T06:03:48;28.70;99.90
41939;DHT22;23057;48.554;14.454;2022-07-22T06:06:19;27.80;99.90
41939;DHT22;23057;48.554;14.454;2022-07-22T06:08:50;28.30;99.90
41939;DHT22;23057;48.554;14.454;2022-07-22T06:11:21;28.40;99.90
41939;DHT22;23057;48.554;14.454;2022-07-22T06:13:52;28.10;99.90
41939;DHT22;23057;48.554;14.454;2022-07-22T06:16:23;27.90;99.90
41939;DHT22;23057;48.554;14.454;2022-07-22T06:18:54;27.90;99.90
41939;DHT22;23057;48.554;14.454;2022-07-22T06:21:25;27.20;99.90
41939;DHT22;23057;48.554;14.454;2022-07-22T06:23:55;26.30;99.90
41939;DHT22;23057;48.554;14.454;2022-07-22T06:26:26;26.80;99.90
41939;DHT22;23057;48.554;14.454;2022-07-22T06:28:57;28.10;99.90
41939;DHT22;23057;48.554;14.454;2022-07-22T06:31:28;28.30;99.90
41939;DHT22;23057;48.554;14.454;2022-07-22T06:33:59;29.40;99.90
41939;DHT22;23057;48.554;14.454;2022-07-22T06:36:29;29.60;99.90
41939;DHT22;23057;48.554;14.454;2022-07-22T06:39:00;30.10;99.90
41939;DHT22;23057;48.554;14.454;2022-07-22T06:41:32;30.60;99.90
41939;DHT22;23057;48.554;14.454;2022-07-22T06:44:03;29.90;99.90
41939;DHT22;23057;48.554;14.454;2022-07-22T06:46:34;29.20;99.90
41939;DHT22;23057;48.554;14.454;2022-07-22T06:49:05;28.70;99.90
41939;DHT22;23057;48.554;14.454;2022-07-22T06:51:37;28.20;99.90
41939;DHT22;23057;48.554;14.454;2022-07-22T06:54:07;28.00;99.90
41939;DHT22;23057;48.554;14.454;2022-07-22T06:56:38;28.00;99.90
41939;DHT22;23057;48.554;14.454;2022-07-22T06:59:09;27.50;99.90
41939;DHT22;23057;48.554;14.454;2022-07-22T07:01:40;27.40;1.00
41939;DHT22;23057;48.554;14.454;2022-07-22T07:04:11;27.80;99.90
41939;DHT22;23057;48.554;14.454;2022-07-22T07:06:42;27.90;99.90
41939;DHT22;23057;48.554;14.454;2022-07-22T07:09:12;27.50;99.90
41939;DHT22;23057;48.554;14.454;2022-07-22T07:11:44;27.80;99.90
41939;DHT22;23057;48.554;14.454;2022-07-22T07:14:15;28.20;99.90
41939;DHT22;23057;48.554;14.454;2022-07-22T07:16:46;27.50;99.90
41939;DHT22;23057;48.554;14.454;2022-07-22T07:19:16;27.30;99.90
41939;DHT22;23057;48.554;14.454;2022-07-22T07:21:47;27.20;99.90
41939;DHT22;23057;48.554;14.454;2022-07-22T07:24:18;27.10;99.90
41939;DHT22;23057;48.554;14.454;2022-07-22T07:26:49;27.10;99.90
41939;DHT22;23057;48.554;14.454;2022-07-22T07:29:19;26.90;99.90
41939;DHT22;23057;48.554;14.454;2022-07-22T07:31:50;26.40;99.90
41939;DHT22;23057;48.554;14.454;2022-07-22T07:34:21;26.50;99.90
41939;DHT22;23057;48.554;14.454;2022-07-22T07:36:52;26.30;99.90
41939;DHT22;23057;48.554;14.454;2022-07-22T07:39:23;26.50;99.90
41939;DHT22;23057;48.554;14.454;2022-07-22T07:41:54;26.60;99.90
41939;DHT22;23057;48.554;14.454;2022-07-22T07:44:25;26.60;99.90
41939;DHT22;23057;48.554;14.454;2022-07-22T07:46:56;26.40;99.90
41939;DHT22;23057;48.554;14.454;2022-07-22T07:49:27;26.80;99.90
41939;DHT22;23057;48.554;14.454;2022-07-22T07:51:57;26.80;99.90
41939;DHT22;23057;48.554;14.454;2022-07-22T07:54:28;27.00;99.90
41939;DHT22;23057;48.554;14.454;2022-07-22T07:56:59;27.40;99.90
41939;DHT22;23057;48.554;14.454;2022-07-22T07:59:30;27.20;99.90
41939;DHT22;23057;48.554;14.454;2022-07-22T08:02:01;27.40;99.90
41939;DHT22;23057;48.554;14.454;2022-07-22T08:04:31;27.30;99.90
41939;DHT22;23057;48.554;14.454;2022-07-22T08:07:03;26.50;99.90
41939;DHT22;23057;48.554;14.454;2022-07-22T08:09:36;27.20;99.90
41939;DHT22;23057;48.554;14.454;2022-07-22T08:12:25;27.40;99.90
41939;DHT22;23057;48.554;14.454;2022-07-22T08:14:56;28.20;99.90
41939;DHT22;23057;48.554;14.454;2022-07-22T08:17:27;27.30;99.90
41939;DHT22;23057;48.554;14.454;2022-07-22T08:19:58;27.80;99.90
41939;DHT22;23057;48.554;14.454;2022-07-22T08:22:28;27.40;99.90
41939;DHT22;23057;48.554;14.454;2022-07-22T08:24:59;27.00;99.90
41939;DHT22;23057;48.554;14.454;2022-07-22T08:27:30;26.40;99.90
41939;DHT22;23057;48.554;14.454;2022-07-22T08:30:02;26.40;99.90
41939;DHT22;23057;48.554;14.454;2022-07-22T08:32:36;26.10;99.90
41939;DHT22;23057;48.554;14.454;2022-07-22T08:35:07;26.60;99.90
41939;DHT22;23057;48.554;14.454;2022-07-22T08:37:40;26.80;99.90
41939;DHT22;23057;48.554;14.454;2022-07-22T08:40:11;27.40;99.90
41939;DHT22;23057;48.554;14.454;2022-07-22T08:42:42;27.90;99.90
41939;DHT22;23057;48.554;14.454;2022-07-22T08:45:16;27.40;99.90
41939;DHT22;23057;48.554;14.454;2022-07-22T08:47:50;27.00;99.90
41939;DHT22;23057;48.554;14.454;2022-07-22T08:50:22;27.30;99.90
41939;DHT22;23057;48.554;14.454;2022-07-22T08:52:53;27.70;99.90
41939;DHT22;23057;48.554;14.454;2022-07-22T08:55:24;27.70;99.90
41939;DHT22;23057;48.554;14.454;2022-07-22T08:57:55;27.50;99.90
41939;DHT22;23057;48.554;14.454;2022-07-22T09:00:26;27.60;99.90
41939;DHT22;23057;48.554;14.454;2022-07-22T09:02:57;27.60;99.90
41939;DHT22;23057;48.554;14.454;2022-07-22T09:05:32;27.80;99.90
41939;DHT22;23057;48.554;14.454;2022-07-22T09:08:04;28.20;99.90
41939;DHT22;23057;48.554;14.454;2022-07-22T09:10:35;28.20;99.90
41939;DHT22;23057;48.554;14.454;2022-07-22T09:13:07;28.00;99.90
41939;DHT22;23057;48.554;14.454;2022-07-22T09:15:50;28.30;99.90
41939;DHT22;23057;48.554;14.454;2022-07-22T09:18:24;28.50;99.90
41939;DHT22;23057;48.554;14.454;2022-07-22T09:20:58;28.40;99.90
41939;DHT22;23057;48.554;14.454;2022-07-22T09:23:38;28.40;99.90
41939;DHT22;23057;48.554;14.454;2022-07-22T09:26:30;28.40;99.90
41939;DHT22;23057;48.554;14.454;2022-07-22T09:29:07;28.60;99.90
41939;DHT22;23057;48.554;14.454;2022-07-22T09:31:38;28.80;99.90
41939;DHT22;23057;48.554;14.454;2022-07-22T09:34:09;28.90;99.90
41939;DHT22;23057;48.554;14.454;2022-07-22T09:36:59;29.20;99.90
41939;DHT22;23057;48.554;14.454;2022-07-22T09:39:31;28.60;99.90
41939;DHT22;23057;48.554;14.454;2022-07-22T09:42:04;28.40;99.90
41939;DHT22;23057;48.554;14.454;2022-07-22T09:44:37;28.30;99.90
41939;DHT22;23057;48.554;14.454;2022-07-22T09:47:26;28.60;99.90
41939;DHT22;23057;48.554;14.454;2022-07-22T09:49:58;28.60;99.90
41939;DHT22;23057;48.554;14.454;2022-07-22T09:52:29;28.90;99.90
41939;DHT22;23057;48.554;14.454;2022-07-22T09:55:01;28.50;99.90
41939;DHT22;23057;48.554;14.454;2022-07-22T09:57:31;28.70;99.90
41939;DHT22;23057;48.554;14.454;2022-07-22T10:00:03;28.90;99.90
41939;DHT22;23057;48.554;14.454;2022-07-22T10:02:40;29.00;99.90
41939;DHT22;23057;48.554;14.454;2022-07-22T10:05:49;29.10;99.90
41939;DHT22;23057;48.554;14.454;2022-07-22T10:08:21;29.30;99.90
41939;DHT22;23057;48.554;14.454;2022-07-22T10:10:53;29.30;99.90
41939;DHT22;23057;48.554;14.454;2022-07-22T10:13:31;29.50;99.90
41939;DHT22;23057;48.554;14.454;2022-07-22T10:16:04;29.70;99.90
41939;DHT22;23057;48.554;14.454;2022-07-22T10:18:37;29.50;99.90
41939;DHT22;23057;48.554;14.454;2022-07-22T10:21:09;29.70;99.90
41939;DHT22;23057;48.554;14.454;2022-07-22T10:24:22;29.70;99.90
41939;DHT22;23057;48.554;14.454;2022-07-22T10:26:49;29.60;99.90
41939;DHT22;23057;48.554;14.454;2022-07-22T10:29:28;29.80;99.90
41939;DHT22;23057;48.554;14.454;2022-07-22T10:32:21;29.60;99.90
41939;DHT22;23057;48.554;14.454;2022-07-22T10:40:18;29.70;99.90
41939;DHT22;23057;48.554;14.454;2022-07-22T10:45:40;29.40;99.90
41939;DHT22;23057;48.554;14.454;2022-07-22T10:48:44;29.40;99.90
41939;DHT22;23057;48.554;14.454;2022-07-22T10:51:19;30.20;99.90
41939;DHT22;23057;48.554;14.454;2022-07-22T10:53:55;29.90;99.90
41939;DHT22;23057;48.554;14.454;2022-07-22T10:56:35;28.90;99.90
41939;DHT22;23057;48.554;14.454;2022-07-22T10:59:14;28.90;99.90
41939;DHT22;23057;48.554;14.454;2022-07-22T11:01:47;29.50;99.90
41939;DHT22;23057;48.554;14.454;2022-07-22T11:04:25;29.90;99.90
41939;DHT22;23057;48.554;14.454;2022-07-22T11:06:57;29.70;99.90
41939;DHT22;23057;48.554;14.454;2022-07-22T11:09:31;29.80;99.90
41939;DHT22;23057;48.554;14.454;2022-07-22T11:12:04;29.80;99.90
41939;DHT22;23057;48.554;14.454;2022-07-22T11:14:43;29.50;99.90
41939;DHT22;23057;48.554;14.454;2022-07-22T11:17:14;29.10;99.90
41939;DHT22;23057;48.554;14.454;2022-07-22T11:19:44;29.70;99.90
41939;DHT22;23057;48.554;14.454;2022-07-22T11:22:15;29.60;99.90
41939;DHT22;23057;48.554;14.454;2022-07-22T11:24:48;29.70;99.90
41939;DHT22;23057;48.554;14.454;2022-07-22T11:27:19;29.70;99.90
41939;DHT22;23057;48.554;14.454;2022-07-22T11:29:53;30.10;99.90
41939;DHT22;23057;48.554;14.454;2022-07-22T11:32:27;30.40;99.90
41939;DHT22;23057;48.554;14.454;2022-07-22T11:35:00;30.30;99.90
41939;DHT22;23057;48.554;14.454;2022-07-22T11:37:31;30.30;99.90
41939;DHT22;23057;48.554;14.454;2022-07-22T11:40:03;30.60;99.90
41939;DHT22;23057;48.554;14.454;2022-07-22T11:42:37;30.90;99.90
41939;DHT22;23057;48.554;14.454;2022-07-22T11:45:08;30.90;99.90
41939;DHT22;23057;48.554;14.454;2022-07-22T11:47:48;30.30;99.90
41939;DHT22;23057;48.554;14.454;2022-07-22T11:50:32;29.30;99.90
41939;DHT22;23057;48.554;14.454;2022-07-22T11:53:03;29.20;99.90
41939;DHT22;23057;48.554;14.454;2022-07-22T11:55:36;29.10;99.90
41939;DHT22;23057;48.554;14.454;2022-07-22T11:58:06;29.00;99.90
41939;DHT22;23057;48.554;14.454;2022-07-22T12:00:38;29.50;99.90
41939;DHT22;23057;48.554;14.454;2022-07-22T12:03:09;29.80;99.90
41939;DHT22;23057;48.554;14.454;2022-07-22T12:05:40;30.00;99.90
41939;DHT22;23057;48.554;14.454;2022-07-22T12:08:11;30.30;99.90
41939;DHT22;23057;48.554;14.454;2022-07-22T12:10:42;30.80;99.90
41939;DHT22;23057;48.554;14.454;2022-07-22T12:13:14;30.90;99.90
41939;DHT22;23057;48.554;14.454;2022-07-22T12:15:44;30.50;99.90
41939;DHT22;23057;48.554;14.454;2022-07-22T12:18:19;30.70;99.90
41939;DHT22;23057;48.554;14.454;2022-07-22T12:20:54;31.10;99.90
41939;DHT22;23057;48.554;14.454;2022-07-22T12:23:26;31.00;99.90
41939;DHT22;23057;48.554;14.454;2022-07-22T12:25:58;31.10;99.90
41939;DHT22;23057;48.554;14.454;2022-07-22T12:28:31;31.00;99.90
41939;DHT22;23057;48.554;14.454;2022-07-22T12:31:02;30.90;99.90
41939;DHT22;23057;48.554;14.454;2022-07-22T12:33:33;31.00;99.90
41939;DHT22;23057;48.554;14.454;2022-07-22T12:36:05;31.10;99.90
41939;DHT22;23057;48.554;14.454;2022-07-22T12:38:37;30.90;99.90
41939;DHT22;23057;48.554;14.454;2022-07-22T12:41:27;31.00;99.90
41939;DHT22;23057;48.554;14.454;2022-07-22T12:44:01;31.10;99.90
41939;DHT22;23057;48.554;14.454;2022-07-22T12:46:32;31.20;99.90
41939;DHT22;23057;48.554;14.454;2022-07-22T12:49:03;30.00;99.90
41939;DHT22;23057;48.554;14.454;2022-07-22T12:51:34;29.40;99.90
41939;DHT22;23057;48.554;14.454;2022-07-22T12:54:05;28.70;99.90
41939;DHT22;23057;48.554;14.454;2022-07-22T12:56:36;28.60;99.90
41939;DHT22;23057;48.554;14.454;2022-07-22T12:59:07;28.80;99.90
41939;DHT22;23057;48.554;14.454;2022-07-22T13:01:38;28.70;99.90
41939;DHT22;23057;48.554;14.454;2022-07-22T13:04:09;29.10;99.90
41939;DHT22;23057;48.554;14.454;2022-07-22T13:06:40;29.50;99.90
41939;DHT22;23057;48.554;14.454;2022-07-22T13:09:10;30.10;99.90
41939;DHT22;23057;48.554;14.454;2022-07-22T13:11:41;29.90;99.90
41939;DHT22;23057;48.554;14.454;2022-07-22T13:14:14;29.60;99.90
41939;DHT22;23057;48.554;14.454;2022-07-22T13:16:45;29.90;99.90
41939;DHT22;23057;48.554;14.454;2022-07-22T13:19:16;29.70;99.90
41939;DHT22;23057;48.554;14.454;2022-07-22T13:21:47;29.60;99.90
41939;DHT22;23057;48.554;14.454;2022-07-22T13:24:18;29.80;99.90
41939;DHT22;23057;48.554;14.454;2022-07-22T13:26:51;29.80;99.90
41939;DHT22;23057;48.554;14.454;2022-07-22T13:29:22;30.20;99.90
41939;DHT22;23057;48.554;14.454;2022-07-22T13:31:52;30.10;99.90
41939;DHT22;23057;48.554;14.454;2022-07-22T13:34:23;30.10;99.90
41939;DHT22;23057;48.554;14.454;2022-07-22T13:36:54;30.10;99.90
41939;DHT22;23057;48.554;14.454;2022-07-22T13:39:25;30.40;99.90
41939;DHT22;23057;48.554;14.454;2022-07-22T13:41:56;30.50;99.90
41939;DHT22;23057;48.554;14.454;2022-07-22T13:44:27;30.90;99.90
41939;DHT22;23057;48.554;14.454;2022-07-22T13:46:58;30.90;99.90
41939;DHT22;23057;48.554;14.454;2022-07-22T13:49:29;30.80;99.90
41939;DHT22;23057;48.554;14.454;2022-07-22T13:52:00;30.90;99.90
41939;DHT22;23057;48.554;14.454;2022-07-22T13:54:32;30.90;99.90
41939;DHT22;23057;48.554;14.454;2022-07-22T13:57:04;31.00;99.90
41939;DHT22;23057;48.554;14.454;2022-07-22T13:59:35;30.70;99.90
41939;DHT22;23057;48.554;14.454;2022-07-22T14:02:08;30.70;99.90
41939;DHT22;23057;48.554;14.454;2022-07-22T14:04:39;30.60;99.90
41939;DHT22;23057;48.554;14.454;2022-07-22T14:07:10;30.80;99.90
41939;DHT22;23057;48.554;14.454;2022-07-22T14:09:41;30.70;99.90
41939;DHT22;23057;48.554;14.454;2022-07-22T14:12:12;30.90;99.90
41939;DHT22;23057;48.554;14.454;2022-07-22T14:14:43;30.90;99.90
41939;DHT22;23057;48.554;14.454;2022-07-22T14:17:14;30.80;99.90
41939;DHT22;23057;48.554;14.454;2022-07-22T14:19:45;30.90;99.90
41939;DHT22;23057;48.554;14.454;2022-07-22T14:22:16;30.90;99.90
41939;DHT22;23057;48.554;14.454;2022-07-22T14:24:46;30.90;99.90
41939;DHT22;23057;48.554;14.454;2022-07-22T14:27:17;30.80;99.90
41939;DHT22;23057;48.554;14.454;2022-07-22T14:29:48;30.80;99.90
41939;DHT22;23057;48.554;14.454;2022-07-22T14:32:19;30.80;99.90
41939;DHT22;23057;48.554;14.454;2022-07-22T14:34:50;30.80;99.90
41939;DHT22;23057;48.554;14.454;2022-07-22T14:37:21;30.90;99.90
41939;DHT22;23057;48.554;14.454;2022-07-22T14:39:52;30.90;99.90
41939;DHT22;23057;48.554;14.454;2022-07-22T14:42:23;30.90;99.90
41939;DHT22;23057;48.554;14.454;2022-07-22T14:44:54;30.60;99.90
41939;DHT22;23057;48.554;14.454;2022-07-22T14:47:25;30.60;99.90
41939;DHT22;23057;48.554;14.454;2022-07-22T14:49:57;30.60;99.90
41939;DHT22;23057;48.554;14.454;2022-07-22T14:52:27;30.70;99.90
41939;DHT22;23057;48.554;14.454;2022-07-22T14:54:58;30.70;99.90
41939;DHT22;23057;48.554;14.454;2022-07-22T14:57:29;30.90;99.90
41939;DHT22;23057;48.554;14.454;2022-07-22T15:00:00;30.70;99.90
41939;DHT22;23057;48.554;14.454;2022-07-22T15:02:31;30.50;99.90
41939;DHT22;23057;48.554;14.454;2022-07-22T15:05:02;30.20;99.90
41939;DHT22;23057;48.554;14.454;2022-07-22T15:07:33;30.10;99.90
41939;DHT22;23057;48.554;14.454;2022-07-22T15:10:03;29.90;99.90
41939;DHT22;23057;48.554;14.454;2022-07-22T15:12:35;29.50;99.90
41939;DHT22;23057;48.554;14.454;2022-07-22T15:15:06;29.30;99.90
41939;DHT22;23057;48.554;14.454;2022-07-22T15:17:38;28.90;99.90
41939;DHT22;23057;48.554;14.454;2022-07-22T15:20:09;28.80;99.90
41939;DHT22;23057;48.554;14.454;2022-07-22T15:22:40;29.00;99.90
41939;DHT22;23057;48.554;14.454;2022-07-22T15:25:11;29.20;99.90
41939;DHT22;23057;48.554;14.454;2022-07-22T15:27:42;29.30;99.90
41939;DHT22;23057;48.554;14.454;2022-07-22T15:30:13;29.40;99.90
41939;DHT22;23057;48.554;14.454;2022-07-22T15:32:44;29.60;99.90
41939;DHT22;23057;48.554;14.454;2022-07-22T15:35:15;29.70;99.90
41939;DHT22;23057;48.554;14.454;2022-07-22T15:37:45;29.70;99.90
41939;DHT22;23057;48.554;14.454;2022-07-22T15:40:17;29.80;99.90
41939;DHT22;23057;48.554;14.454;2022-07-22T15:42:48;29.80;99.90
41939;DHT22;23057;48.554;14.454;2022-07-22T15:45:19;29.90;99.90
41939;DHT22;23057;48.554;14.454;2022-07-22T15:47:50;29.90;99.90
41939;DHT22;23057;48.554;14.454;2022-07-22T15:50:21;29.70;99.90
41939;DHT22;23057;48.554;14.454;2022-07-22T15:52:51;29.60;99.90
41939;DHT22;23057;48.554;14.454;2022-07-22T15:55:23;29.60;99.90